sensor_id;sensor_type;location;lat;lon;timestamp;temperature;humidity
10702;DHT22;5402;50.004;8.246;2023-08-17T00:02:04;19.00;99.90
10702;DHT22;5402;50.004;8.246;2023-08-17T00:04:31;18.90;99.90
10702;DHT22;5402;50.004;8.246;2023-08-17T00:06:57;18.90;99.90
10702;DHT22;5402;50.004;8.246;2023-08-17T00:09:24;19.00;99.90
10702;DHT22;5402;50.004;8.246;2023-08-17T00:11:51;19.00;99.90
10702;DHT22;5402;50.004;8.246;2023-08-17T00:14:19;19.00;99.90
10702;DHT22;5402;50.004;8.246;2023-08-17T00:16:46;19.10;99.90
10702;DHT22;5402;50.004;8.246;2023-08-17T00:19:12;19.00;99.90
10702;DHT22;5402;50.004;8.246;2023-08-17T00:21:39;19.10;99.90
10702;DHT22;5402;50.004;8.246;2023-08-17T00:24:06;19.00;99.90
10702;DHT22;5402;50.004;8.246;2023-08-17T00:26:33;19.10;99.90
10702;DHT22;5402;50.004;8.246;2023-08-17T00:29:00;19.10;99.90
10702;DHT22;5402;50.004;8.246;2023-08-17T00:31:28;18.90;99.90
10702;DHT22;5402;50.004;8.246;2023-08-17T00:33:54;19.00;99.90
10702;DHT22;5402;50.004;8.246;2023-08-17T00:36:21;19.00;99.90
10702;DHT22;5402;50.004;8.246;2023-08-17T00:38:48;18.90;99.90
10702;DHT22;5402;50.004;8.246;2023-08-17T00:41:15;19.10;99.90
10702;DHT22;5402;50.004;8.246;2023-08-17T00:43:41;19.00;99.90
10702;DHT22;5402;50.004;8.246;2023-08-17T00:46:08;18.90;99.90
10702;DHT22;5402;50.004;8.246;2023-08-17T00:48:36;18.90;99.90
10702;DHT22;5402;50.004;8.246;2023-08-17T00:51:03;19.00;99.90
10702;DHT22;5402;50.004;8.246;2023-08-17T00:53:31;19.00;99.90
10702;DHT22;5402;50.004;8.246;2023-08-17T00:55:59;19.00;99.90
10702;DHT22;5402;50.004;8.246;2023-08-17T00:58:30;19.10;99.90
10702;DHT22;5402;50.004;8.246;2023-08-17T01:00:57;19.20;99.90
10702;DHT22;5402;50.004;8.246;2023-08-17T01:03:24;19.10;99.90
10702;DHT22;5402;50.004;8.246;2023-08-17T01:05:56;19.00;99.90
10702;DHT22;5402;50.004;8.246;2023-08-17T01:08:23;19.00;99.90
10702;DHT22;5402;50.004;8.246;2023-08-17T01:10:55;19.00;99.90
10702;DHT22;5402;50.004;8.246;2023-08-17T01:13:28;19.10;99.90
10702;DHT22;5402;50.004;8.246;2023-08-17T01:16:01;19.00;99.90
10702;DHT22;5402;50.004;8.246;2023-08-17T01:18:31;19.10;99.90
10702;DHT22;5402;50.004;8.246;2023-08-17T01:21:00;18.90;99.90
10702;DHT22;5402;50.004;8.246;2023-08-17T01:23:29;19.00;99.90
10702;DHT22;5402;50.004;8.246;2023-08-17T01:25:56;18.90;99.90
10702;DHT22;5402;50.004;8.246;2023-08-17T01:28:23;18.90;99.90
10702;DHT22;5402;50.004;8.246;2023-08-17T01:30:57;18.80;99.90
10702;DHT22;5402;50.004;8.246;2023-08-17T01:33:27;18.90;99.90
10702;DHT22;5402;50.004;8.246;2023-08-17T01:36:03;18.90;99.90
10702;DHT22;5402;50.004;8.246;2023-08-17T01:38:34;18.80;99.90
10702;DHT22;5402;50.004;8.246;2023-08-17T01:41:02;18.90;99.90
10702;DHT22;5402;50.004;8.246;2023-08-17T01:43:30;18.90;99.90
10702;DHT22;5402;50.004;8.246;2023-08-17T01:45:58;18.70;99.90
10702;DHT22;5402;50.004;8.246;2023-08-17T01:48:25;18.80;99.90
10702;DHT22;5402;50.004;8.246;2023-08-17T01:50:51;18.90;99.90
10702;DHT22;5402;50.004;8.246;2023-08-17T01:53:18;18.90;99.90
10702;DHT22;5402;50.004;8.246;2023-08-17T01:55:46;19.00;99.90
10702;DHT22;5402;50.004;8.246;2023-08-17T01:58:13;19.00;99.90
10702;DHT22;5402;50.004;8.246;2023-08-17T02:00:39;18.90;99.90
10702;DHT22;5402;50.004;8.246;2023-08-17T02:03:06;18.90;99.90
10702;DHT22;5402;50.004;8.246;2023-08-17T02:05:33;18.80;99.90
10702;DHT22;5402;50.004;8.246;2023-08-17T02:08:00;18.80;99.90
10702;DHT22;5402;50.004;8.246;2023-08-17T02:10:26;18.90;99.90
10702;DHT22;5402;50.004;8.246;2023-08-17T02:12:54;19.00;99.90
10702;DHT22;5402;50.004;8.246;2023-08-17T02:15:21;19.00;99.90
10702;DHT22;5402;50.004;8.246;2023-08-17T02:17:48;19.00;99.90
10702;DHT22;5402;50.004;8.246;2023-08-17T02:20:14;19.00;99.90
10702;DHT22;5402;50.004;8.246;2023-08-17T02:22:41;19.00;99.90
10702;DHT22;5402;50.004;8.246;2023-08-17T02:25:08;19.10;99.90
10702;DHT22;5402;50.004;8.246;2023-08-17T02:27:35;19.10;99.90
10702;DHT22;5402;50.004;8.246;2023-08-17T02:30:03;19.00;99.90
10702;DHT22;5402;50.004;8.246;2023-08-17T02:32:30;19.00;99.90
10702;DHT22;5402;50.004;8.246;2023-08-17T02:34:57;18.90;99.90
10702;DHT22;5402;50.004;8.246;2023-08-17T02:37:24;18.90;99.90
10702;DHT22;5402;50.004;8.246;2023-08-17T02:39:50;19.00;99.90
10702;DHT22;5402;50.004;8.246;2023-08-17T02:42:17;19.00;99.90
10702;DHT22;5402;50.004;8.246;2023-08-17T02:44:44;18.90;99.90
10702;DHT22;5402;50.004;8.246;2023-08-17T02:47:12;18.90;99.90
10702;DHT22;5402;50.004;8.246;2023-08-17T02:49:38;18.90;99.90
10702;DHT22;5402;50.004;8.246;2023-08-17T02:52:05;18.80;99.90
10702;DHT22;5402;50.004;8.246;2023-08-17T02:54:32;18.80;99.90
10702;DHT22;5402;50.004;8.246;2023-08-17T02:56:59;18.70;99.90
10702;DHT22;5402;50.004;8.246;2023-08-17T02:59:26;18.80;99.90
10702;DHT22;5402;50.004;8.246;2023-08-17T03:01:53;18.90;99.90
10702;DHT22;5402;50.004;8.246;2023-08-17T03:04:21;18.70;99.90
10702;DHT22;5402;50.004;8.246;2023-08-17T03:06:48;18.60;99.90
10702;DHT22;5402;50.004;8.246;2023-08-17T03:09:15;18.60;99.90
10702;DHT22;5402;50.004;8.246;2023-08-17T03:11:41;18.70;99.90
10702;DHT22;5402;50.004;8.246;2023-08-17T03:14:08;18.80;99.90
10702;DHT22;5402;50.004;8.246;2023-08-17T03:16:35;18.60;99.90
10702;DHT22;5402;50.004;8.246;2023-08-17T03:19:02;18.70;99.90
10702;DHT22;5402;50.004;8.246;2023-08-17T03:21:30;18.70;99.90
10702;DHT22;5402;50.004;8.246;2023-08-17T03:23:57;18.50;99.90
10702;DHT22;5402;50.004;8.246;2023-08-17T03:26:24;18.60;99.90
10702;DHT22;5402;50.004;8.246;2023-08-17T03:28:50;18.40;99.90
10702;DHT22;5402;50.004;8.246;2023-08-17T03:31:17;18.40;99.90
10702;DHT22;5402;50.004;8.246;2023-08-17T03:33:46;18.60;99.90
10702;DHT22;5402;50.004;8.246;2023-08-17T03:36:13;18.40;99.90
10702;DHT22;5402;50.004;8.246;2023-08-17T03:38:41;18.30;99.90
10702;DHT22;5402;50.004;8.246;2023-08-17T03:41:07;18.20;99.90
10702;DHT22;5402;50.004;8.246;2023-08-17T03:43:34;18.20;99.90
10702;DHT22;5402;50.004;8.246;2023-08-17T03:46:03;18.10;99.90
10702;DHT22;5402;50.004;8.246;2023-08-17T03:48:30;18.20;99.90
10702;DHT22;5402;50.004;8.246;2023-08-17T03:50:57;18.10;99.90
10702;DHT22;5402;50.004;8.246;2023-08-17T03:53:24;18.10;99.90
10702;DHT22;5402;50.004;8.246;2023-08-17T03:55:52;18.20;99.90
10702;DHT22;5402;50.004;8.246;2023-08-17T03:58:18;18.10;99.90
10702;DHT22;5402;50.004;8.246;2023-08-17T04:00:49;18.10;99.90
10702;DHT22;5402;50.004;8.246;2023-08-17T04:03:16;18.00;99.90
10702;DHT22;5402;50.004;8.246;2023-08-17T04:05:43;18.10;99.90
10702;DHT22;5402;50.004;8.246;2023-08-17T04:08:10;17.90;99.90
10702;DHT22;5402;50.004;8.246;2023-08-17T04:10:37;18.10;99.90
10702;DHT22;5402;50.004;8.246;2023-08-17T04:13:05;18.00;99.90
10702;DHT22;5402;50.004;8.246;2023-08-17T04:15:31;18.00;99.90
10702;DHT22;5402;50.004;8.246;2023-08-17T04:17:58;17.80;99.90
10702;DHT22;5402;50.004;8.246;2023-08-17T04:20:25;18.00;99.90
10702;DHT22;5402;50.004;8.246;2023-08-17T04:22:52;17.90;99.90
10702;DHT22;5402;50.004;8.246;2023-08-17T04:25:18;17.90;99.90
10702;DHT22;5402;50.004;8.246;2023-08-17T04:27:45;17.90;99.90
10702;DHT22;5402;50.004;8.246;2023-08-17T04:30:13;17.90;99.90
10702;DHT22;5402;50.004;8.246;2023-08-17T04:32:40;17.80;99.90
10702;DHT22;5402;50.004;8.246;2023-08-17T04:35:07;17.90;99.90
10702;DHT22;5402;50.004;8.246;2023-08-17T04:37:35;17.80;99.90
10702;DHT22;5402;50.004;8.246;2023-08-17T04:40:01;17.90;99.90
10702;DHT22;5402;50.004;8.246;2023-08-17T04:42:29;17.90;99.90
10702;DHT22;5402;50.004;8.246;2023-08-17T04:44:56;17.90;99.90
10702;DHT22;5402;50.004;8.246;2023-08-17T04:47:24;17.90;99.90
10702;DHT22;5402;50.004;8.246;2023-08-17T04:49:50;17.80;99.90
10702;DHT22;5402;50.004;8.246;2023-08-17T04:52:17;17.90;99.90
10702;DHT22;5402;50.004;8.246;2023-08-17T04:54:44;17.80;99.90
10702;DHT22;5402;50.004;8.246;2023-08-17T04:57:10;17.80;99.90
10702;DHT22;5402;50.004;8.246;2023-08-17T04:59:37;17.90;99.90
10702;DHT22;5402;50.004;8.246;2023-08-17T05:02:04;18.00;99.90
10702;DHT22;5402;50.004;8.246;2023-08-17T05:04:32;17.90;99.90
10702;DHT22;5402;50.004;8.246;2023-08-17T05:06:59;18.00;99.90
10702;DHT22;5402;50.004;8.246;2023-08-17T05:09:26;18.20;99.90
10702;DHT22;5402;50.004;8.246;2023-08-17T05:11:53;18.10;99.90
10702;DHT22;5402;50.004;8.246;2023-08-17T05:14:20;18.10;99.90
10702;DHT22;5402;50.004;8.246;2023-08-17T05:16:46;18.10;99.90
10702;DHT22;5402;50.004;8.246;2023-08-17T05:19:13;18.10;99.90
10702;DHT22;5402;50.004;8.246;2023-08-17T05:21:41;18.10;99.90
10702;DHT22;5402;50.004;8.246;2023-08-17T05:24:08;18.20;99.90
10702;DHT22;5402;50.004;8.246;2023-08-17T05:26:34;18.20;99.90
10702;DHT22;5402;50.004;8.246;2023-08-17T05:29:01;18.40;99.90
10702;DHT22;5402;50.004;8.246;2023-08-17T05:31:28;18.40;99.90
10702;DHT22;5402;50.004;8.246;2023-08-17T05:33:55;18.40;99.90
10702;DHT22;5402;50.004;8.246;2023-08-17T05:36:21;18.10;99.90
10702;DHT22;5402;50.004;8.246;2023-08-17T05:38:49;18.00;99.90
10702;DHT22;5402;50.004;8.246;2023-08-17T05:41:16;18.20;99.90
10702;DHT22;5402;50.004;8.246;2023-08-17T05:43:43;18.20;99.90
10702;DHT22;5402;50.004;8.246;2023-08-17T05:46:10;18.20;99.90
10702;DHT22;5402;50.004;8.246;2023-08-17T05:48:36;18.20;99.90
10702;DHT22;5402;50.004;8.246;2023-08-17T05:51:03;18.20;99.90
10702;DHT22;5402;50.004;8.246;2023-08-17T05:53:30;18.20;99.90
10702;DHT22;5402;50.004;8.246;2023-08-17T05:55:58;18.20;99.90
10702;DHT22;5402;50.004;8.246;2023-08-17T05:58:24;18.30;99.90
10702;DHT22;5402;50.004;8.246;2023-08-17T06:00:51;18.40;99.90
10702;DHT22;5402;50.004;8.246;2023-08-17T06:03:18;18.40;99.90
10702;DHT22;5402;50.004;8.246;2023-08-17T06:05:44;18.50;99.90
10702;DHT22;5402;50.004;8.246;2023-08-17T06:08:11;18.50;99.90
10702;DHT22;5402;50.004;8.246;2023-08-17T06:10:38;18.70;99.90
10702;DHT22;5402;50.004;8.246;2023-08-17T06:13:06;18.60;99.90
10702;DHT22;5402;50.004;8.246;2023-08-17T06:15:32;18.90;99.90
10702;DHT22;5402;50.004;8.246;2023-08-17T06:17:59;18.70;99.90
10702;DHT22;5402;50.004;8.246;2023-08-17T06:20:26;18.80;99.90
10702;DHT22;5402;50.004;8.246;2023-08-17T06:22:52;18.70;99.90
10702;DHT22;5402;50.004;8.246;2023-08-17T06:25:19;18.70;99.90
10702;DHT22;5402;50.004;8.246;2023-08-17T06:27:48;18.60;99.90
10702;DHT22;5402;50.004;8.246;2023-08-17T06:30:17;18.70;99.90
10702;DHT22;5402;50.004;8.246;2023-08-17T06:32:44;18.70;99.90
10702;DHT22;5402;50.004;8.246;2023-08-17T06:35:10;18.80;99.90
10702;DHT22;5402;50.004;8.246;2023-08-17T06:37:37;18.80;99.90
10702;DHT22;5402;50.004;8.246;2023-08-17T06:40:05;18.80;99.90
10702;DHT22;5402;50.004;8.246;2023-08-17T06:42:32;18.90;99.90
10702;DHT22;5402;50.004;8.246;2023-08-17T06:44:59;19.00;99.90
10702;DHT22;5402;50.004;8.246;2023-08-17T06:47:27;19.00;99.90
10702;DHT22;5402;50.004;8.246;2023-08-17T06:49:54;19.10;99.90
10702;DHT22;5402;50.004;8.246;2023-08-17T06:52:23;19.10;99.90
10702;DHT22;5402;50.004;8.246;2023-08-17T06:54:49;19.20;99.90
10702;DHT22;5402;50.004;8.246;2023-08-17T06:57:16;19.30;99.90
10702;DHT22;5402;50.004;8.246;2023-08-17T06:59:44;19.30;99.90
10702;DHT22;5402;50.004;8.246;2023-08-17T07:02:11;19.40;99.90
10702;DHT22;5402;50.004;8.246;2023-08-17T07:04:39;19.30;99.90
10702;DHT22;5402;50.004;8.246;2023-08-17T07:07:06;19.30;99.90
10702;DHT22;5402;50.004;8.246;2023-08-17T07:09:32;19.40;99.90
10702;DHT22;5402;50.004;8.246;2023-08-17T07:11:59;19.50;99.90
10702;DHT22;5402;50.004;8.246;2023-08-17T07:14:26;19.60;99.90
10702;DHT22;5402;50.004;8.246;2023-08-17T07:16:53;19.60;99.90
10702;DHT22;5402;50.004;8.246;2023-08-17T07:19:20;19.60;99.90
10702;DHT22;5402;50.004;8.246;2023-08-17T07:21:48;19.60;99.90
10702;DHT22;5402;50.004;8.246;2023-08-17T07:24:15;19.70;99.90
10702;DHT22;5402;50.004;8.246;2023-08-17T07:26:42;19.70;99.90
10702;DHT22;5402;50.004;8.246;2023-08-17T07:29:09;19.70;99.90
10702;DHT22;5402;50.004;8.246;2023-08-17T07:31:37;19.90;99.90
10702;DHT22;5402;50.004;8.246;2023-08-17T07:34:04;19.70;99.90
10702;DHT22;5402;50.004;8.246;2023-08-17T07:36:31;19.70;99.90
10702;DHT22;5402;50.004;8.246;2023-08-17T07:38:59;19.80;99.90
10702;DHT22;5402;50.004;8.246;2023-08-17T07:41:26;19.70;99.90
10702;DHT22;5402;50.004;8.246;2023-08-17T07:43:53;19.90;99.90
10702;DHT22;5402;50.004;8.246;2023-08-17T07:46:21;20.00;99.90
10702;DHT22;5402;50.004;8.246;2023-08-17T07:48:48;20.00;99.90
10702;DHT22;5402;50.004;8.246;2023-08-17T07:51:14;20.00;99.90
10702;DHT22;5402;50.004;8.246;2023-08-17T07:53:41;20.00;99.90
10702;DHT22;5402;50.004;8.246;2023-08-17T07:56:09;20.10;99.90
10702;DHT22;5402;50.004;8.246;2023-08-17T07:58:36;20.20;99.90
10702;DHT22;5402;50.004;8.246;2023-08-17T08:01:03;20.20;99.90
10702;DHT22;5402;50.004;8.246;2023-08-17T08:03:31;20.30;99.90
10702;DHT22;5402;50.004;8.246;2023-08-17T08:05:58;20.40;99.90
10702;DHT22;5402;50.004;8.246;2023-08-17T08:08:25;20.40;99.90
10702;DHT22;5402;50.004;8.246;2023-08-17T08:10:53;20.60;99.90
10702;DHT22;5402;50.004;8.246;2023-08-17T08:13:21;20.90;99.90
10702;DHT22;5402;50.004;8.246;2023-08-17T08:15:48;21.00;99.90
10702;DHT22;5402;50.004;8.246;2023-08-17T08:18:14;20.80;99.90
10702;DHT22;5402;50.004;8.246;2023-08-17T08:20:41;20.90;99.90
10702;DHT22;5402;50.004;8.246;2023-08-17T08:23:08;20.90;99.90
10702;DHT22;5402;50.004;8.246;2023-08-17T08:25:34;20.90;99.90
10702;DHT22;5402;50.004;8.246;2023-08-17T08:28:01;20.90;99.90
10702;DHT22;5402;50.004;8.246;2023-08-17T08:30:29;20.90;99.90
10702;DHT22;5402;50.004;8.246;2023-08-17T08:32:56;21.10;99.90
10702;DHT22;5402;50.004;8.246;2023-08-17T08:35:24;21.20;99.90
10702;DHT22;5402;50.004;8.246;2023-08-17T08:37:51;21.10;99.90
10702;DHT22;5402;50.004;8.246;2023-08-17T08:40:18;21.20;99.90
10702;DHT22;5402;50.004;8.246;2023-08-17T08:42:45;21.30;99.90
10702;DHT22;5402;50.004;8.246;2023-08-17T08:45:12;21.40;99.90
10702;DHT22;5402;50.004;8.246;2023-08-17T08:47:41;21.60;99.90
10702;DHT22;5402;50.004;8.246;2023-08-17T08:50:12;22.00;99.90
10702;DHT22;5402;50.004;8.246;2023-08-17T08:52:43;22.50;99.90
10702;DHT22;5402;50.004;8.246;2023-08-17T08:55:15;22.80;99.90
10702;DHT22;5402;50.004;8.246;2023-08-17T08:57:43;23.20;99.90
10702;DHT22;5402;50.004;8.246;2023-08-17T09:00:11;23.60;99.90
10702;DHT22;5402;50.004;8.246;2023-08-17T09:02:41;23.30;99.90
10702;DHT22;5402;50.004;8.246;2023-08-17T09:05:10;23.10;99.90
10702;DHT22;5402;50.004;8.246;2023-08-17T09:07:37;22.80;99.90
10702;DHT22;5402;50.004;8.246;2023-08-17T09:10:05;22.60;99.90
10702;DHT22;5402;50.004;8.246;2023-08-17T09:12:32;22.60;99.90
10702;DHT22;5402;50.004;8.246;2023-08-17T09:14:58;22.70;99.90
10702;DHT22;5402;50.004;8.246;2023-08-17T09:17:26;22.80;99.90
10702;DHT22;5402;50.004;8.246;2023-08-17T09:19:54;22.60;99.90
10702;DHT22;5402;50.004;8.246;2023-08-17T09:22:22;22.20;99.90
10702;DHT22;5402;50.004;8.246;2023-08-17T09:24:49;22.00;99.90
10702;DHT22;5402;50.004;8.246;2023-08-17T09:27:16;21.80;99.90
10702;DHT22;5402;50.004;8.246;2023-08-17T09:29:43;21.70;99.90
10702;DHT22;5402;50.004;8.246;2023-08-17T09:32:14;21.70;99.90
10702;DHT22;5402;50.004;8.246;2023-08-17T09:34:43;21.80;99.90
10702;DHT22;5402;50.004;8.246;2023-08-17T09:37:13;21.80;99.90
10702;DHT22;5402;50.004;8.246;2023-08-17T09:39:40;21.60;99.90
10702;DHT22;5402;50.004;8.246;2023-08-17T09:42:07;21.60;99.90
10702;DHT22;5402;50.004;8.246;2023-08-17T09:44:34;22.00;99.90
10702;DHT22;5402;50.004;8.246;2023-08-17T09:47:01;22.30;99.90
10702;DHT22;5402;50.004;8.246;2023-08-17T09:49:31;22.50;99.90
10702;DHT22;5402;50.004;8.246;2023-08-17T09:51:59;22.60;99.90
10702;DHT22;5402;50.004;8.246;2023-08-17T09:54:30;22.70;99.90
10702;DHT22;5402;50.004;8.246;2023-08-17T09:56:57;22.70;99.90
10702;DHT22;5402;50.004;8.246;2023-08-17T09:59:24;23.10;99.90
10702;DHT22;5402;50.004;8.246;2023-08-17T10:01:51;23.30;99.90
10702;DHT22;5402;50.004;8.246;2023-08-17T10:04:21;23.60;99.90
10702;DHT22;5402;50.004;8.246;2023-08-17T10:06:50;23.80;99.90
10702;DHT22;5402;50.004;8.246;2023-08-17T10:09:22;23.90;99.90
10702;DHT22;5402;50.004;8.246;2023-08-17T10:11:51;23.70;99.90
10702;DHT22;5402;50.004;8.246;2023-08-17T10:14:22;23.70;99.90
10702;DHT22;5402;50.004;8.246;2023-08-17T10:16:56;23.80;99.90
10702;DHT22;5402;50.004;8.246;2023-08-17T10:19:30;23.90;99.90
10702;DHT22;5402;50.004;8.246;2023-08-17T10:22:05;23.80;99.90
10702;DHT22;5402;50.004;8.246;2023-08-17T10:24:34;24.00;99.90
10702;DHT22;5402;50.004;8.246;2023-08-17T10:27:06;24.20;99.90
10702;DHT22;5402;50.004;8.246;2023-08-17T10:29:33;24.40;99.90
10702;DHT22;5402;50.004;8.246;2023-08-17T10:32:00;24.60;99.90
10702;DHT22;5402;50.004;8.246;2023-08-17T10:34:28;24.80;99.90
10702;DHT22;5402;50.004;8.246;2023-08-17T10:36:55;24.90;99.90
10702;DHT22;5402;50.004;8.246;2023-08-17T10:39:26;24.90;99.90
10702;DHT22;5402;50.004;8.246;2023-08-17T10:41:53;24.80;99.90
10702;DHT22;5402;50.004;8.246;2023-08-17T10:44:39;25.00;99.90
10702;DHT22;5402;50.004;8.246;2023-08-17T10:47:20;25.30;99.90
10702;DHT22;5402;50.004;8.246;2023-08-17T10:49:48;25.10;99.90
10702;DHT22;5402;50.004;8.246;2023-08-17T10:52:25;25.10;99.90
10702;DHT22;5402;50.004;8.246;2023-08-17T10:54:53;25.00;99.90
10702;DHT22;5402;50.004;8.246;2023-08-17T10:57:28;24.90;99.90
10702;DHT22;5402;50.004;8.246;2023-08-17T11:00:14;24.80;99.90
10702;DHT22;5402;50.004;8.246;2023-08-17T11:02:43;24.90;99.90
10702;DHT22;5402;50.004;8.246;2023-08-17T11:05:10;25.00;99.90
10702;DHT22;5402;50.004;8.246;2023-08-17T11:07:40;25.10;99.90
10702;DHT22;5402;50.004;8.246;2023-08-17T11:10:27;25.20;99.90
10702;DHT22;5402;50.004;8.246;2023-08-17T11:12:55;25.50;99.90
10702;DHT22;5402;50.004;8.246;2023-08-17T11:15:30;25.80;99.90
10702;DHT22;5402;50.004;8.246;2023-08-17T11:18:03;26.20;99.90
10702;DHT22;5402;50.004;8.246;2023-08-17T11:20:33;26.30;99.90
10702;DHT22;5402;50.004;8.246;2023-08-17T11:23:00;26.30;99.90
10702;DHT22;5402;50.004;8.246;2023-08-17T11:25:27;26.30;99.90
10702;DHT22;5402;50.004;8.246;2023-08-17T11:27:53;26.00;99.90
10702;DHT22;5402;50.004;8.246;2023-08-17T11:30:20;26.00;99.90
10702;DHT22;5402;50.004;8.246;2023-08-17T11:32:49;25.80;99.90
10702;DHT22;5402;50.004;8.246;2023-08-17T11:35:16;25.60;99.90
10702;DHT22;5402;50.004;8.246;2023-08-17T11:37:43;25.60;99.90
10702;DHT22;5402;50.004;8.246;2023-08-17T11:40:10;25.80;99.90
10702;DHT22;5402;50.004;8.246;2023-08-17T11:42:37;25.80;99.90
10702;DHT22;5402;50.004;8.246;2023-08-17T11:45:05;25.60;99.90
10702;DHT22;5402;50.004;8.246;2023-08-17T11:47:34;25.60;99.90
10702;DHT22;5402;50.004;8.246;2023-08-17T11:50:03;25.90;99.90
10702;DHT22;5402;50.004;8.246;2023-08-17T11:52:31;26.20;99.90
10702;DHT22;5402;50.004;8.246;2023-08-17T11:54:58;26.30;99.90
10702;DHT22;5402;50.004;8.246;2023-08-17T11:57:25;26.30;99.90
10702;DHT22;5402;50.004;8.246;2023-08-17T11:59:53;26.10;99.90
10702;DHT22;5402;50.004;8.246;2023-08-17T12:02:23;26.30;99.90
10702;DHT22;5402;50.004;8.246;2023-08-17T12:04:50;26.50;99.90
10702;DHT22;5402;50.004;8.246;2023-08-17T12:07:19;26.40;99.90
10702;DHT22;5402;50.004;8.246;2023-08-17T12:09:48;26.30;99.90
10702;DHT22;5402;50.004;8.246;2023-08-17T12:12:17;26.50;99.90
10702;DHT22;5402;50.004;8.246;2023-08-17T12:14:46;26.90;99.90
10702;DHT22;5402;50.004;8.246;2023-08-17T12:17:17;27.00;99.90
10702;DHT22;5402;50.004;8.246;2023-08-17T12:19:48;26.90;99.90
10702;DHT22;5402;50.004;8.246;2023-08-17T12:22:16;26.80;99.90
10702;DHT22;5402;50.004;8.246;2023-08-17T12:24:45;26.80;99.90
10702;DHT22;5402;50.004;8.246;2023-08-17T12:27:11;26.90;99.90
10702;DHT22;5402;50.004;8.246;2023-08-17T12:29:46;26.70;99.90
10702;DHT22;5402;50.004;8.246;2023-08-17T12:32:14;26.60;99.90
10702;DHT22;5402;50.004;8.246;2023-08-17T12:34:40;27.10;99.90
10702;DHT22;5402;50.004;8.246;2023-08-17T12:37:08;27.00;99.90
10702;DHT22;5402;50.004;8.246;2023-08-17T12:39:35;26.90;99.90
10702;DHT22;5402;50.004;8.246;2023-08-17T12:42:03;26.80;99.90
10702;DHT22;5402;50.004;8.246;2023-08-17T12:44:30;26.70;99.90
10702;DHT22;5402;50.004;8.246;2023-08-17T12:46:57;26.80;99.90
10702;DHT22;5402;50.004;8.246;2023-08-17T12:49:23;26.80;99.90
10702;DHT22;5402;50.004;8.246;2023-08-17T12:51:51;26.70;99.90
10702;DHT22;5402;50.004;8.246;2023-08-17T12:54:17;26.90;99.90
10702;DHT22;5402;50.004;8.246;2023-08-17T12:56:44;26.60;99.90
10702;DHT22;5402;50.004;8.246;2023-08-17T12:59:12;26.40;99.90
10702;DHT22;5402;50.004;8.246;2023-08-17T13:01:40;26.30;99.90
10702;DHT22;5402;50.004;8.246;2023-08-17T13:04:07;26.20;99.90
10702;DHT22;5402;50.004;8.246;2023-08-17T13:06:34;26.40;99.90
10702;DHT22;5402;50.004;8.246;2023-08-17T13:09:01;26.30;99.90
10702;DHT22;5402;50.004;8.246;2023-08-17T13:11:28;26.30;99.90
10702;DHT22;5402;50.004;8.246;2023-08-17T13:13:55;26.30;99.90
10702;DHT22;5402;50.004;8.246;2023-08-17T13:16:23;26.20;99.90
10702;DHT22;5402;50.004;8.246;2023-08-17T13:18:49;26.20;99.90
10702;DHT22;5402;50.004;8.246;2023-08-17T13:21:16;26.10;99.90
10702;DHT22;5402;50.004;8.246;2023-08-17T13:23:43;26.10;99.90
10702;DHT22;5402;50.004;8.246;2023-08-17T13:26:10;26.10;99.90
10702;DHT22;5402;50.004;8.246;2023-08-17T13:28:37;26.00;99.90
10702;DHT22;5402;50.004;8.246;2023-08-17T13:31:04;25.90;99.90
10702;DHT22;5402;50.004;8.246;2023-08-17T13:33:32;25.90;99.90
10702;DHT22;5402;50.004;8.246;2023-08-17T13:35:59;26.00;99.90
10702;DHT22;5402;50.004;8.246;2023-08-17T13:38:27;26.30;99.90
10702;DHT22;5402;50.004;8.246;2023-08-17T13:40:54;26.40;99.90
10702;DHT22;5402;50.004;8.246;2023-08-17T13:43:21;26.50;99.90
10702;DHT22;5402;50.004;8.246;2023-08-17T13:45:47;26.70;99.90
10702;DHT22;5402;50.004;8.246;2023-08-17T13:48:14;26.80;99.90
10702;DHT22;5402;50.004;8.246;2023-08-17T13:50:43;26.90;99.90
10702;DHT22;5402;50.004;8.246;2023-08-17T13:53:10;26.90;99.90
10702;DHT22;5402;50.004;8.246;2023-08-17T13:55:37;26.80;99.90
10702;DHT22;5402;50.004;8.246;2023-08-17T13:58:04;26.90;99.90
10702;DHT22;5402;50.004;8.246;2023-08-17T14:00:31;26.80;99.90
10702;DHT22;5402;50.004;8.246;2023-08-17T14:02:57;26.70;99.90
10702;DHT22;5402;50.004;8.246;2023-08-17T14:05:24;26.80;99.90
10702;DHT22;5402;50.004;8.246;2023-08-17T14:07:52;26.80;99.90
10702;DHT22;5402;50.004;8.246;2023-08-17T14:10:20;26.80;99.90
10702;DHT22;5402;50.004;8.246;2023-08-17T14:12:46;26.90;99.90
10702;DHT22;5402;50.004;8.246;2023-08-17T14:15:13;26.90;99.90
10702;DHT22;5402;50.004;8.246;2023-08-17T14:17:40;26.90;99.90
10702;DHT22;5402;50.004;8.246;2023-08-17T14:20:08;26.80;99.90
10702;DHT22;5402;50.004;8.246;2023-08-17T14:22:34;26.70;99.90
10702;DHT22;5402;50.004;8.246;2023-08-17T14:25:03;26.60;99.90
10702;DHT22;5402;50.004;8.246;2023-08-17T14:27:30;26.70;99.90
10702;DHT22;5402;50.004;8.246;2023-08-17T14:29:57;26.60;99.90
10702;DHT22;5402;50.004;8.246;2023-08-17T14:32:27;26.50;99.90
10702;DHT22;5402;50.004;8.246;2023-08-17T14:34:54;26.50;99.90
10702;DHT22;5402;50.004;8.246;2023-08-17T14:37:21;26.40;99.90
10702;DHT22;5402;50.004;8.246;2023-08-17T14:39:47;26.40;99.90
10702;DHT22;5402;50.004;8.246;2023-08-17T14:42:15;26.40;99.90
10702;DHT22;5402;50.004;8.246;2023-08-17T14:44:42;26.40;99.90
10702;DHT22;5402;50.004;8.246;2023-08-17T14:47:09;26.40;99.90
10702;DHT22;5402;50.004;8.246;2023-08-17T14:49:35;26.50;99.90
10702;DHT22;5402;50.004;8.246;2023-08-17T14:52:02;26.50;99.90
10702;DHT22;5402;50.004;8.246;2023-08-17T14:54:29;26.50;99.90
10702;DHT22;5402;50.004;8.246;2023-08-17T14:56:56;26.60;99.90
10702;DHT22;5402;50.004;8.246;2023-08-17T14:59:24;26.80;99.90
10702;DHT22;5402;50.004;8.246;2023-08-17T15:01:51;27.00;99.90
10702;DHT22;5402;50.004;8.246;2023-08-17T15:04:19;27.00;99.90
10702;DHT22;5402;50.004;8.246;2023-08-17T15:06:47;27.00;99.90
10702;DHT22;5402;50.004;8.246;2023-08-17T15:09:14;27.00;99.90
10702;DHT22;5402;50.004;8.246;2023-08-17T15:11:41;27.20;99.90
10702;DHT22;5402;50.004;8.246;2023-08-17T15:14:08;27.20;99.90
10702;DHT22;5402;50.004;8.246;2023-08-17T15:16:36;27.20;99.90
10702;DHT22;5402;50.004;8.246;2023-08-17T15:19:03;27.20;99.90
10702;DHT22;5402;50.004;8.246;2023-08-17T15:21:30;27.20;99.90
10702;DHT22;5402;50.004;8.246;2023-08-17T15:23:57;27.30;99.90
10702;DHT22;5402;50.004;8.246;2023-08-17T15:26:24;27.30;99.90
10702;DHT22;5402;50.004;8.246;2023-08-17T15:28:51;27.40;99.90
10702;DHT22;5402;50.004;8.246;2023-08-17T15:31:17;27.40;99.90
10702;DHT22;5402;50.004;8.246;2023-08-17T15:33:45;27.50;99.90
10702;DHT22;5402;50.004;8.246;2023-08-17T15:36:13;27.60;99.90
10702;DHT22;5402;50.004;8.246;2023-08-17T15:38:43;27.50;99.90
10702;DHT22;5402;50.004;8.246;2023-08-17T15:41:10;27.60;99.90
10702;DHT22;5402;50.004;8.246;2023-08-17T15:43:37;27.60;99.90
10702;DHT22;5402;50.004;8.246;2023-08-17T15:46:04;27.50;99.90
10702;DHT22;5402;50.004;8.246;2023-08-17T15:48:30;27.70;99.90